Time;durP1;ratioP1;P1;durP2;ratioP2;P2;SDS_P1;SDS_P2;PMS_P1;PMS_P2;Temp;Humidity;BMP_temperature;BMP_pressure;BME280_temperature;BME280_humidity;BME280_pressure;Samples;Min_cycle;Max_cycle;Signal;HPM_P1;HPM_P2
2022/02/04 00:09:12;;;;;;;1.50;1.25;;;11.10;82.90;;;;;;5011259;28;20038;-66
2022/02/04 00:24:47;;;;;;;2.10;1.42;;;11.20;82.80;;;;;;5011489;28;20029;-67
2022/02/04 00:27:15;;;;;;;2.22;1.40;;;11.20;82.40;;;;;;5009795;28;20124;-67
2022/02/04 00:29:57;;;;;;;1.88;1.20;;;11.20;82.40;;;;;;5010075;28;20118;-66
2022/02/04 00:32:25;;;;;;;1.75;1.20;;;11.20;82.00;;;;;;5010819;28;20117;-66
2022/02/04 00:34:59;;;;;;;1.02;0.90;;;11.10;81.50;;;;;;5011494;28;20034;-66
2022/02/04 00:37:52;;;;;;;1.60;1.02;;;11.20;82.00;;;;;;5010952;28;20041;-67
2022/02/04 00:40:20;;;;;;;1.23;0.98;;;11.20;81.20;;;;;;5009255;28;20045;-67
2022/02/04 00:42:46;;;;;;;1.45;1.17;;;11.20;82.10;;;;;;5010192;28;20032;-67
2022/02/04 00:45:20;;;;;;;3.25;1.20;;;11.10;82.00;;;;;;5028975;28;20036;-66
2022/02/04 00:47:52;;;;;;;1.95;1.20;;;11.20;81.80;;;;;;5070779;28;20488;-66
2022/02/04 00:50:29;;;;;;;1.65;1.30;;;11.10;81.10;;;;;;5096369;28;20027;-67
2022/02/04 00:53:11;;;;;;;2.17;1.38;;;11.10;81.70;;;;;;5078183;28;20020;-67
2022/02/04 00:56:01;;;;;;;2.47;1.35;;;11.10;81.70;;;;;;5093121;28;20027;-66
2022/02/04 01:28:17;;;;;;;2.30;1.50;;;11.30;80.60;;;;;;5105826;28;20030;-66
2022/02/04 01:30:44;;;;;;;2.63;1.70;;;11.20;81.00;;;;;;5094750;28;20031;-67
2022/02/04 01:33:12;;;;;;;1.77;1.63;;;11.20;81.20;;;;;;5096038;28;20450;-66
2022/02/04 01:35:38;;;;;;;3.25;1.70;;;11.20;81.40;;;;;;5095651;28;20107;-67
2022/02/04 01:38:04;;;;;;;2.80;1.92;;;11.30;81.80;;;;;;5092936;28;20107;-66
2022/02/04 01:40:29;;;;;;;3.42;1.80;;;11.30;81.80;;;;;;5093785;28;20533;-67
2022/02/04 01:42:55;;;;;;;3.22;2.38;;;11.30;81.30;;;;;;5096909;28;20123;-67
2022/02/04 01:45:21;;;;;;;3.50;2.03;;;11.30;81.50;;;;;;5095632;28;20078;-67
2022/02/04 01:47:55;;;;;;;2.60;2.10;;;11.20;81.80;;;;;;5095390;28;20020;-67
2022/02/04 01:50:25;;;;;;;2.60;2.08;;;11.20;82.10;;;;;;5093327;28;20098;-67
2022/02/04 01:52:50;;;;;;;4.43;2.67;;;11.20;82.30;;;;;;5075505;28;20048;-67
2022/02/04 01:55:17;;;;;;;2.60;2.40;;;11.20;82.10;;;;;;5096881;28;20059;-67
2022/02/04 01:57:43;;;;;;;4.18;2.40;;;11.20;82.50;;;;;;5105511;28;20084;-67
2022/02/04 02:00:10;;;;;;;4.03;2.08;;;11.20;82.50;;;;;;5100103;28;20020;-67
2022/02/04 02:02:35;;;;;;;3.13;2.30;;;11.20;82.80;;;;;;5095282;28;20034;-67
2022/02/04 02:05:01;;;;;;;2.00;1.80;;;11.20;82.40;;;;;;5090014;28;20119;-66
2022/02/04 02:07:29;;;;;;;2.63;2.10;;;11.10;82.60;;;;;;5075948;28;20418;-67
2022/02/04 02:10:03;;;;;;;3.25;2.10;;;11.20;83.00;;;;;;5096091;28;20047;-66
2022/02/04 02:12:35;;;;;;;3.13;2.15;;;11.20;82.90;;;;;;5094680;28;20115;-67
2022/02/04 03:00:22;;;;;;;1.98;0.90;;;11.20;81.20;;;;;;5007791;28;20387;-67
2022/02/04 03:02:48;;;;;;;2.00;1.10;;;11.20;81.60;;;;;;5040616;28;20043;-67
2022/02/04 03:05:13;;;;;;;1.55;0.90;;;11.20;81.70;;;;;;5105460;28;20027;-67
2022/02/04 03:07:39;;;;;;;1.85;1.30;;;11.30;81.50;;;;;;5090542;28;20041;-67
2022/02/04 03:10:05;;;;;;;1.10;0.98;;;11.20;81.20;;;;;;5112135;28;20031;-67
2022/02/04 03:12:31;;;;;;;1.92;1.10;;;11.20;81.20;;;;;;5094149;28;20468;-67
2022/02/04 03:14:57;;;;;;;2.22;0.95;;;11.20;81.20;;;;;;5094380;28;20020;-67
2022/02/04 03:17:23;;;;;;;1.85;0.90;;;11.20;81.10;;;;;;5094376;28;20039;-67
2022/02/04 03:19:53;;;;;;;1.65;1.00;;;11.20;81.30;;;;;;5089673;28;20466;-67
2022/02/04 03:22:19;;;;;;;2.40;1.00;;;11.30;81.40;;;;;;5103637;28;20059;-67
2022/02/04 03:24:53;;;;;;;1.13;0.90;;;11.30;81.10;;;;;;5094475;28;20056;-67
2022/02/04 03:27:19;;;;;;;1.55;0.90;;;11.30;81.40;;;;;;5075964;28;20047;-67
2022/02/04 03:30:11;;;;;;;1.65;1.10;;;11.30;81.40;;;;;;5094005;28;20024;-67
2022/02/04 03:32:32;;;;;;;1.42;0.98;;;11.20;81.50;;;;;;5093411;28;20044;-67
2022/02/04 03:34:57;;;;;;;2.53;1.10;;;11.30;81.60;;;;;;5071436;28;20074;-67
2022/02/04 03:37:23;;;;;;;3.63;1.27;;;11.20;81.30;;;;;;5076609;28;20035;-67
2022/02/04 03:39:48;;;;;;;2.28;1.35;;;11.20;81.60;;;;;;5098444;28;20021;-67
2022/02/04 03:42:14;;;;;;;1.20;1.00;;;11.30;82.00;;;;;;5097906;28;20432;-67
2022/02/04 03:44:40;;;;;;;2.72;1.30;;;11.20;82.00;;;;;;5098098;28;20504;-67
2022/02/04 03:47:05;;;;;;;1.98;1.10;;;11.20;82.30;;;;;;5095823;28;20035;-67
2022/02/04 03:49:31;;;;;;;2.15;1.30;;;11.20;82.40;;;;;;5096138;28;20039;-67
2022/02/04 03:51:56;;;;;;;1.80;1.08;;;11.30;82.50;;;;;;5098767;28;20016;-67
2022/02/04 03:54:22;;;;;;;1.73;1.10;;;11.30;82.40;;;;;;5097559;28;20038;-67
2022/02/04 03:56:48;;;;;;;1.65;1.15;;;11.30;82.10;;;;;;5097909;28;20511;-67
2022/02/04 03:59:13;;;;;;;1.75;0.82;;;11.30;82.30;;;;;;5096445;28;20019;-67
2022/02/04 04:01:39;;;;;;;1.77;1.00;;;11.20;82.10;;;;;;5094402;28;20072;-67
2022/02/04 04:04:05;;;;;;;2.47;1.40;;;11.20;82.30;;;;;;5081553;28;20020;-67
2022/02/04 04:06:31;;;;;;;1.83;1.05;;;11.20;82.70;;;;;;5097320;28;20101;-67
2022/02/04 04:08:56;;;;;;;1.65;1.10;;;11.20;82.60;;;;;;5097482;28;20481;-67
2022/02/04 04:11:22;;;;;;;2.53;1.20;;;11.20;82.80;;;;;;5097464;28;20070;-67
2022/02/04 04:13:49;;;;;;;2.05;0.95;;;11.10;82.60;;;;;;5093056;28;20067;-67
2022/02/04 04:16:15;;;;;;;2.22;1.10;;;11.10;83.10;;;;;;5099041;28;20031;-67
2022/02/04 04:18:41;;;;;;;1.65;0.95;;;11.20;83.40;;;;;;5097268;28;20488;-67
2022/02/04 04:21:07;;;;;;;2.53;1.00;;;11.20;84.50;;;;;;5096734;28;20024;-67
2022/02/04 04:23:32;;;;;;;1.65;1.17;;;11.20;83.20;;;;;;5097167;28;20066;-67
2022/02/04 04:25:58;;;;;;;1.48;0.90;;;11.20;83.20;;;;;;5075935;28;20024;-67
2022/02/04 04:28:24;;;;;;;1.75;1.00;;;11.20;83.70;;;;;;5097235;28;20853;-67
2022/02/04 04:30:49;;;;;;;2.67;1.00;;;11.20;83.00;;;;;;5097664;28;20111;-67
2022/02/04 04:33:15;;;;;;;2.58;0.98;;;11.20;83.40;;;;;;5097015;28;20095;-67
2022/02/04 04:35:41;;;;;;;1.85;0.90;;;11.20;83.70;;;;;;5096687;28;20028;-67
2022/02/04 04:38:25;;;;;;;1.58;0.90;;;11.20;83.80;;;;;;5094788;28;20032;-67
2022/02/04 05:29:24;;;;;;;1.92;1.05;;;11.30;84.40;;;;;;5095995;28;20035;-67
2022/02/04 05:31:49;;;;;;;2.55;1.05;;;11.30;84.10;;;;;;5089769;28;20404;-68
2022/02/04 05:34:17;;;;;;;2.88;1.15;;;11.30;84.50;;;;;;5086813;28;20024;-67
2022/02/04 05:36:45;;;;;;;2.08;1.13;;;11.30;84.50;;;;;;5095690;28;20036;-67
2022/02/04 05:39:13;;;;;;;1.90;0.88;;;11.30;84.10;;;;;;5095636;28;20027;-67
2022/02/04 05:41:43;;;;;;;1.90;1.25;;;11.30;84.40;;;;;;5095456;28;20031;-67
2022/02/04 05:44:12;;;;;;;2.28;1.30;;;11.20;84.40;;;;;;5093839;28;20040;-67
2022/02/04 05:47:02;;;;;;;1.92;1.30;;;11.30;84.50;;;;;;5092196;28;20384;-67
2022/02/04 05:49:29;;;;;;;2.67;1.58;;;11.30;84.40;;;;;;5105714;28;20377;-67
2022/02/04 06:22:50;;;;;;;3.30;1.48;;;11.30;84.90;;;;;;5090870;28;20522;-66
2022/02/04 06:25:15;;;;;;;2.70;1.25;;;11.30;84.50;;;;;;5103961;28;20107;-67
2022/02/04 06:27:42;;;;;;;2.15;1.00;;;11.30;84.30;;;;;;5094222;28;20531;-67
2022/02/04 06:30:10;;;;;;;2.13;1.38;;;11.30;84.40;;;;;;5093886;28;20024;-67
2022/02/04 06:32:36;;;;;;;1.92;1.13;;;11.30;84.00;;;;;;5093895;28;20032;-68
2022/02/04 06:35:07;;;;;;;3.42;1.20;;;11.30;84.30;;;;;;5091641;28;20023;-67
2022/02/04 06:37:33;;;;;;;1.65;1.00;;;11.20;83.80;;;;;;5092301;28;20504;-66
2022/02/04 06:39:59;;;;;;;1.73;1.48;;;11.20;84.50;;;;;;5094499;28;20043;-67
2022/02/04 06:42:27;;;;;;;2.97;1.50;;;11.20;84.50;;;;;;5094790;28;20036;-67
2022/02/04 06:44:53;;;;;;;1.45;0.95;;;11.20;84.40;;;;;;5094359;28;20020;-66
2022/02/04 06:47:19;;;;;;;1.70;0.98;;;11.20;83.90;;;;;;5093942;28;20035;-67
2022/02/04 06:49:46;;;;;;;5.35;1.40;;;11.30;84.40;;;;;;5089597;28;20024;-67
2022/02/04 06:52:12;;;;;;;2.55;1.63;;;11.20;84.20;;;;;;5095788;28;20499;-67
2022/02/04 06:54:38;;;;;;;2.47;1.77;;;11.20;84.40;;;;;;5094619;28;20086;-67
2022/02/04 06:57:04;;;;;;;1.70;1.20;;;11.20;83.90;;;;;;5094596;28;20039;-67
2022/02/04 06:59:30;;;;;;;3.25;1.30;;;11.20;84.30;;;;;;5076113;28;20503;-67
2022/02/04 07:01:56;;;;;;;1.90;1.20;;;11.20;83.90;;;;;;5090916;28;20032;-67
2022/02/04 07:04:22;;;;;;;2.90;1.50;;;11.20;83.90;;;;;;5076654;28;20027;-67
2022/02/04 07:06:56;;;;;;;2.72;1.70;;;11.20;84.20;;;;;;5094858;28;20038;-67
2022/02/04 07:09:29;;;;;;;1.88;1.30;;;11.20;84.00;;;;;;5094376;28;20040;-67
2022/02/04 07:12:20;;;;;;;1.73;1.05;;;11.20;84.00;;;;;;5076168;28;20016;-67
2022/02/04 07:15:45;;;;;;;2.80;1.08;;;11.20;84.10;;;;;;5097730;28;20036;-67
2022/02/04 07:19:56;;;;;;;1.02;0.90;;;11.20;84.10;;;;;;5094870;28;20046;-67
2022/02/04 07:22:39;;;;;;;1.88;1.10;;;11.20;83.80;;;;;;5080537;28;20024;-67
2022/02/04 07:25:06;;;;;;;1.83;1.10;;;11.10;83.40;;;;;;5098868;28;20039;-67
2022/02/04 07:27:34;;;;;;;2.40;1.17;;;11.10;84.10;;;;;;5097790;28;20032;-67
2022/02/04 07:30:00;;;;;;;1.80;0.85;;;11.10;83.90;;;;;;5096909;28;20520;-67
2022/02/04 07:42:56;;;;;;;2.53;0.82;;;10.90;85.00;;;;;;5099196;28;20106;-66
2022/02/04 07:45:22;;;;;;;1.10;0.80;;;10.90;84.70;;;;;;5098051;28;20038;-67
2022/02/04 07:47:49;;;;;;;1.48;0.90;;;10.90;84.80;;;;;;5093420;28;20038;-67
2022/02/04 07:50:20;;;;;;;3.60;2.60;;;10.90;84.90;;;;;;5094545;28;20034;-66
2022/02/04 07:52:47;;;;;;;2.20;1.30;;;10.90;85.30;;;;;;5104118;28;20028;-67
2022/02/04 07:55:12;;;;;;;1.60;1.00;;;10.90;85.00;;;;;;5099419;28;20267;-66
2022/02/04 07:57:38;;;;;;;3.30;1.13;;;11.00;85.30;;;;;;5097398;28;20515;-67
2022/02/04 08:00:05;;;;;;;1.30;0.80;;;11.00;84.70;;;;;;5091365;28;20016;-66
2022/02/04 08:02:30;;;;;;;1.75;1.00;;;11.00;84.80;;;;;;5091455;28;20020;-66
2022/02/04 08:05:03;;;;;;;3.05;1.80;;;11.00;84.40;;;;;;5067949;28;20451;-67
2022/02/04 08:07:33;;;;;;;1.13;0.90;;;11.00;84.70;;;;;;5109938;28;20072;-67
2022/02/04 08:10:10;;;;;;;1.92;0.73;;;11.00;84.40;;;;;;5091642;28;20026;-67
2022/02/04 08:13:01;;;;;;;0.85;0.65;;;11.00;84.20;;;;;;5096185;28;20039;-66
2022/02/04 08:28:47;;;;;;;1.52;0.57;;;10.90;84.40;;;;;;5084390;28;20073;-67
2022/02/04 08:31:42;;;;;;;1.20;0.50;;;11.00;84.70;;;;;;5109653;28;20032;-67
2022/02/04 08:55:17;;;;;;;1.00;0.50;;;11.10;83.80;;;;;;5097117;28;20036;-67
2022/02/04 08:58:00;;;;;;;1.67;0.40;;;11.20;83.80;;;;;;5096230;28;20032;-67
2022/02/04 09:00:35;;;;;;;1.63;0.57;;;11.10;83.10;;;;;;5093490;28;20020;-67
2022/02/04 09:03:13;;;;;;;0.50;0.40;;;11.10;83.60;;;;;;5111786;27;20446;-67
2022/02/04 09:05:42;;;;;;;1.60;0.70;;;11.10;83.70;;;;;;5096423;28;20487;-67
2022/02/04 09:08:30;;;;;;;0.70;0.50;;;11.10;83.90;;;;;;5094155;28;20551;-67
2022/02/04 09:11:01;;;;;;;1.95;0.50;;;11.20;83.90;;;;;;5076770;28;20492;-67
2022/02/04 09:19:02;;;;;;;0.80;0.50;;;11.40;83.90;;;;;;5097356;28;20043;-67
2022/02/04 09:24:13;;;;;;;1.95;0.52;;;11.60;83.10;;;;;;5092676;28;20463;-68
2022/02/04 09:26:40;;;;;;;2.10;0.50;;;11.60;83.50;;;;;;5091130;28;20016;-68
2022/02/04 09:29:06;;;;;;;1.00;0.60;;;12.30;87.60;;;;;;5092281;28;20025;-67
2022/02/04 09:31:33;;;;;;;0.95;0.60;;;12.90;84.50;;;;;;5099084;28;20019;-67
2022/02/04 09:33:58;;;;;;;1.55;0.60;;;13.40;85.10;;;;;;5097479;28;20031;-68
2022/02/04 09:36:24;;;;;;;1.00;0.40;;;13.80;82.60;;;;;;5087427;28;20024;-67
2022/02/04 09:38:50;;;;;;;0.95;0.50;;;13.80;78.40;;;;;;5091509;28;20036;-68
2022/02/04 09:41:22;;;;;;;1.20;0.43;;;14.00;81.30;;;;;;5082181;28;20055;-67
2022/02/04 09:43:49;;;;;;;1.03;0.47;;;13.80;78.00;;;;;;5085107;28;20028;-67
2022/02/04 09:46:15;;;;;;;0.73;0.40;;;13.50;77.00;;;;;;5088085;28;20028;-67
2022/02/04 09:48:45;;;;;;;1.10;0.50;;;13.30;78.10;;;;;;5085715;28;20020;-68
2022/02/04 09:51:13;;;;;;;1.67;0.30;;;13.10;77.40;;;;;;5083849;28;20024;-67
2022/02/04 10:15:47;;;;;;;1.40;0.50;;;15.30;70.70;;;;;;5084640;28;20085;-74
2022/02/04 10:18:41;;;;;;;1.95;0.60;;;15.10;72.00;;;;;;5103169;27;20071;-75
2022/02/04 10:21:07;;;;;;;;;;;14.60;71.40;;;;;;5086128;28;20046;-76
2022/02/04 10:23:56;;;;;;;0.60;0.30;;;14.20;72.60;;;;;;5090710;28;19911;-77
2022/02/04 10:26:23;;;;;;;0.55;0.30;;;13.80;73.30;;;;;;5086252;28;20020;-76
2022/02/04 10:28:49;;;;;;;1.35;0.60;;;13.70;73.80;;;;;;5071049;28;20051;-74
2022/02/04 10:31:16;;;;;;;1.15;0.40;;;13.60;75.20;;;;;;5089505;28;20020;-74
2022/02/04 10:34:06;;;;;;;0.85;0.50;;;13.50;74.70;;;;;;5090365;28;20023;-75
2022/02/04 10:39:59;;;;;;;2.40;0.60;;;13.50;76.70;;;;;;5090061;28;20073;-75
2022/02/04 10:45:12;;;;;;;1.50;0.50;;;13.40;75.40;;;;;;5087582;28;20024;-68
2022/02/04 10:54:33;;;;;;;0.98;0.40;;;13.30;76.30;;;;;;5090073;28;20047;-67
2022/02/04 10:56:43;;;;;;;0.98;0.30;;;13.30;75.90;;;;;;5084563;28;20531;-67
2022/02/04 11:31:38;;;;;;;4.45;0.73;;;13.00;75.90;;;;;;5008620;28;20084;-67
2022/02/04 11:34:15;;;;;;;5.00;1.33;;;12.90;75.80;;;;;;4990460;28;20029;-67
2022/02/04 11:48:42;;;;;;;3.42;0.57;;;13.20;76.60;;;;;;4949349;28;20154;-68
2022/02/04 11:51:50;;;;;;;3.00;0.77;;;13.30;76.80;;;;;;4980281;28;20034;-75
2022/02/04 11:56:58;;;;;;;4.45;0.57;;;13.20;76.40;;;;;;4989348;28;20422;-68
2022/02/04 11:59:42;;;;;;;0.93;0.43;;;13.20;76.20;;;;;;4989575;28;20046;-75
2022/02/04 12:02:26;;;;;;;4.32;0.85;;;13.20;76.30;;;;;;4998415;28;20121;-71
2022/02/04 12:05:15;;;;;;;2.88;0.70;;;13.20;76.70;;;;;;5007913;28;20434;-68
2022/02/04 12:07:55;;;;;;;2.15;0.38;;;13.30;76.80;;;;;;4994246;28;20030;-67
2022/02/04 12:10:44;;;;;;;6.13;0.70;;;13.20;76.00;;;;;;4994844;28;20121;-68
2022/02/04 12:13:10;;;;;;;2.42;0.60;;;13.10;76.50;;;;;;4991011;28;20042;-68
2022/02/04 12:15:41;;;;;;;2.17;0.70;;;13.10;76.60;;;;;;4992274;28;20027;-68
2022/02/04 12:18:08;;;;;;;6.35;1.85;;;13.00;76.60;;;;;;4975442;28;20030;-67
2022/02/04 12:23:31;;;;;;;2.83;0.60;;;12.90;77.60;;;;;;5090028;28;20116;-74
2022/02/04 12:26:01;;;;;;;2.15;0.55;;;12.90;79.20;;;;;;5090827;28;20097;-71
2022/02/04 12:28:48;;;;;;;2.15;0.70;;;12.90;78.20;;;;;;5080633;28;20032;-67
2022/02/04 12:31:24;;;;;;;1.52;0.55;;;12.90;78.90;;;;;;5078426;28;20024;-73
2022/02/04 12:34:06;;;;;;;0.50;0.30;;;12.80;78.80;;;;;;5078012;28;20107;-73
2022/02/04 12:36:38;;;;;;;1.23;0.30;;;12.60;78.70;;;;;;5069944;28;20054;-74
2022/02/04 12:39:07;;;;;;;0.82;0.20;;;12.30;78.80;;;;;;5090221;28;20036;-71
2022/02/04 12:41:36;;;;;;;0.50;0.30;;;12.10;78.90;;;;;;5078030;28;20025;-71
2022/02/04 12:44:04;;;;;;;0.73;0.20;;;11.90;78.80;;;;;;5090841;28;20039;-72
2022/02/04 12:46:31;;;;;;;0.60;0.30;;;11.70;79.80;;;;;;5076261;28;20032;-73
2022/02/04 12:49:03;;;;;;;0.38;0.20;;;11.60;80.80;;;;;;5080441;28;20036;-73
2022/02/04 12:51:35;;;;;;;0.47;0.20;;;11.50;80.60;;;;;;5088783;28;20404;-73
2022/02/04 12:54:01;;;;;;;0.57;0.20;;;11.40;80.50;;;;;;5091525;28;20020;-77
2022/02/04 12:59:36;;;;;;;1.33;0.20;;;11.40;81.30;;;;;;5088889;28;20037;-75
2022/02/04 13:10:08;;;;;;;1.02;0.32;;;11.40;81.70;;;;;;5088107;28;20024;-77
2022/02/04 13:12:55;;;;;;;1.42;0.38;;;11.50;81.30;;;;;;5089063;28;20026;-78
2022/02/04 13:15:21;;;;;;;0.82;0.30;;;11.30;79.50;;;;;;5084062;28;20031;-76
2022/02/04 13:17:47;;;;;;;2.13;0.40;;;11.00;80.30;;;;;;5075953;28;20028;-77
2022/02/04 13:20:16;;;;;;;1.48;0.45;;;11.00;81.40;;;;;;5096280;28;20035;-76
2022/02/04 13:22:42;;;;;;;2.30;0.40;;;11.20;81.60;;;;;;5074020;28;20139;-77
2022/02/04 13:25:12;;;;;;;3.22;0.65;;;11.30;82.00;;;;;;5084056;28;20073;-76
2022/02/04 13:27:38;;;;;;;2.83;0.60;;;11.40;82.10;;;;;;5087323;28;20036;-78
2022/02/04 13:30:37;;;;;;;2.67;0.50;;;11.50;80.80;;;;;;5082956;28;20067;-79
2022/02/04 13:33:15;;;;;;;3.17;0.50;;;11.40;80.70;;;;;;5023393;28;20045;-78
2022/02/04 13:35:42;;;;;;;2.70;0.50;;;11.50;80.10;;;;;;5028806;28;20038;-79
2022/02/04 13:38:20;;;;;;;1.52;0.30;;;11.50;79.90;;;;;;5027749;28;20457;-78
2022/02/04 13:41:07;;;;;;;2.75;0.40;;;11.60;80.00;;;;;;5012975;28;20036;-78
2022/02/04 13:43:48;;;;;;;2.35;0.35;;;11.70;80.30;;;;;;5027199;28;20121;-67
2022/02/04 13:49:04;;;;;;;3.53;0.68;;;12.00;79.50;;;;;;5028222;28;20033;-67
2022/02/04 13:56:55;;;;;;;2.53;0.60;;;12.10;78.40;;;;;;5028262;28;20052;-67
2022/02/04 13:59:38;;;;;;;1.80;0.43;;;12.40;78.70;;;;;;5011756;28;20096;-67
2022/02/04 14:02:16;;;;;;;3.05;0.50;;;12.60;78.90;;;;;;5031264;28;20052;-67
2022/02/04 14:04:53;;;;;;;1.70;0.52;;;12.90;78.10;;;;;;5028677;28;20052;-67
2022/02/04 14:07:22;;;;;;;2.35;0.60;;;13.00;77.00;;;;;;5025646;28;20056;-67
2022/02/04 14:09:56;;;;;;;3.50;0.60;;;13.10;76.90;;;;;;5082450;28;20493;-67
2022/02/04 14:12:23;;;;;;;3.50;0.80;;;13.20;75.70;;;;;;5084562;28;20028;-68
2022/02/04 14:15:00;;;;;;;2.15;0.63;;;13.30;75.70;;;;;;5082692;28;20183;-67
2022/02/04 14:17:31;;;;;;;2.58;0.60;;;13.30;74.40;;;;;;5074562;28;20055;-67
2022/02/04 14:19:57;;;;;;;3.85;0.63;;;13.20;73.30;;;;;;5091315;28;20036;-66
2022/02/04 14:22:23;;;;;;;4.05;0.70;;;13.10;73.30;;;;;;5086644;28;20025;-66
2022/02/04 14:24:49;;;;;;;2.40;0.52;;;13.00;72.30;;;;;;5085757;28;20031;-66
2022/02/04 14:27:16;;;;;;;2.20;0.50;;;12.80;72.00;;;;;;5067309;28;20161;-66
2022/02/04 14:29:56;;;;;;;2.63;0.60;;;12.70;72.80;;;;;;5084975;28;20036;-67
2022/02/04 14:32:27;;;;;;;2.67;0.52;;;12.50;71.70;;;;;;5074323;28;20060;-67
2022/02/04 15:03:43;;;;;;;2.85;0.70;;;12.10;71.10;;;;;;5091417;28;20094;-66
2022/02/04 15:06:22;;;;;;;2.33;0.47;;;12.10;69.20;;;;;;5092295;28;20020;-67
2022/02/04 15:08:50;;;;;;;3.17;0.50;;;12.00;70.00;;;;;;5092603;28;20030;-67
2022/02/04 15:11:18;;;;;;;2.90;0.75;;;11.90;70.30;;;;;;5091547;28;20015;-66
2022/02/04 15:13:46;;;;;;;2.33;0.57;;;12.00;71.10;;;;;;5087698;28;20044;-66
2022/02/04 15:16:12;;;;;;;3.08;0.60;;;12.00;69.90;;;;;;5094525;28;20113;-66
2022/02/04 15:18:40;;;;;;;4.43;0.50;;;12.00;70.70;;;;;;5091208;28;20052;-66
2022/02/04 15:21:12;;;;;;;2.88;0.80;;;12.00;69.10;;;;;;5093196;28;20089;-67
2022/02/04 15:23:39;;;;;;;3.28;0.98;;;12.00;69.40;;;;;;5092747;28;20028;-66
2022/02/04 15:26:07;;;;;;;3.70;0.70;;;11.90;69.10;;;;;;5104809;28;20020;-66
2022/02/04 15:28:49;;;;;;;3.83;0.75;;;12.00;69.90;;;;;;5090501;28;20073;-66
2022/02/04 15:33:58;;;;;;;2.25;0.80;;;12.10;70.10;;;;;;5096443;28;20028;-66
2022/02/04 15:36:27;;;;;;;3.20;0.73;;;12.20;69.60;;;;;;5095678;28;20032;-66
2022/02/04 15:38:54;;;;;;;3.05;0.47;;;12.20;69.40;;;;;;5096940;28;20043;-66
2022/02/04 15:41:22;;;;;;;6.80;1.00;;;12.10;68.60;;;;;;5094678;28;20235;-66
2022/02/04 15:43:53;;;;;;;2.05;0.40;;;12.00;69.30;;;;;;5076910;28;20077;-67
2022/02/04 15:57:30;;;;;;;3.53;0.80;;;11.60;69.30;;;;;;5039270;28;20032;-66
2022/02/04 16:05:15;;;;;;;3.97;0.88;;;11.60;69.00;;;;;;5040437;28;20045;-66
2022/02/04 16:07:41;;;;;;;4.80;0.95;;;11.60;69.00;;;;;;5035550;28;20397;-66
2022/02/04 16:12:51;;;;;;;4.03;0.80;;;11.60;69.60;;;;;;5032353;28;20040;-67
2022/02/04 16:15:51;;;;;;;4.65;1.10;;;11.50;68.80;;;;;;5032099;28;20031;-66
2022/02/04 16:18:11;;;;;;;3.05;0.98;;;11.50;68.70;;;;;;5031267;28;20085;-66
2022/02/04 16:23:25;;;;;;;4.25;1.58;;;11.40;69.20;;;;;;5031330;28;20033;-68
2022/02/04 16:31:01;;;;;;;4.72;1.25;;;11.50;69.50;;;;;;5095559;28;20039;-68
2022/02/04 16:33:26;;;;;;;4.60;1.48;;;11.50;69.30;;;;;;5099607;28;20036;-69
2022/02/04 16:35:52;;;;;;;2.75;1.00;;;11.50;69.20;;;;;;5095664;28;20024;-69
2022/02/04 16:38:19;;;;;;;5.70;1.17;;;11.50;69.40;;;;;;5095817;28;20110;-69
2022/02/04 16:40:46;;;;;;;3.78;1.17;;;11.40;69.40;;;;;;5092443;28;20020;-75
2022/02/04 16:43:15;;;;;;;3.45;0.98;;;11.30;69.40;;;;;;5110916;28;20487;-71
2022/02/04 16:45:41;;;;;;;3.70;1.10;;;11.30;69.40;;;;;;5093177;28;20480;-71
2022/02/04 16:48:07;;;;;;;6.90;1.20;;;11.30;68.90;;;;;;5092518;28;20035;-71
2022/02/04 16:50:33;;;;;;;4.57;1.20;;;11.30;69.20;;;;;;5091784;28;20070;-71
2022/02/04 16:52:59;;;;;;;4.03;0.88;;;11.20;68.40;;;;;;5090241;28;20389;-71
2022/02/04 16:55:25;;;;;;;4.35;1.20;;;11.20;68.60;;;;;;5092212;28;20060;-71
2022/02/04 16:57:51;;;;;;;4.03;0.80;;;11.00;68.70;;;;;;5093570;28;20549;-71
2022/02/04 17:00:22;;;;;;;5.20;1.10;;;11.00;68.60;;;;;;5094105;28;20790;-70
2022/02/04 17:03:01;;;;;;;5.78;0.93;;;11.00;68.40;;;;;;5072827;28;20457;-70
2022/02/04 17:05:36;;;;;;;4.10;0.73;;;10.90;68.40;;;;;;5093926;28;20039;-70
2022/02/04 17:08:07;;;;;;;3.92;0.70;;;11.00;68.10;;;;;;5091442;28;20107;-71
2022/02/04 17:10:35;;;;;;;3.05;1.00;;;10.90;67.70;;;;;;5092975;28;20050;-70
2022/02/04 17:13:01;;;;;;;6.10;1.10;;;10.90;68.30;;;;;;5095426;28;20040;-69
2022/02/04 17:15:36;;;;;;;7.38;1.23;;;10.90;68.30;;;;;;5081853;28;20031;-70
2022/02/04 17:18:04;;;;;;;5.72;1.30;;;10.90;68.90;;;;;;5087262;28;20035;-69
2022/02/04 17:20:31;;;;;;;5.18;1.40;;;10.80;68.10;;;;;;5094382;28;20084;-70
2022/02/04 17:23:01;;;;;;;5.05;1.35;;;10.80;68.20;;;;;;5091183;28;20034;-70
2022/02/04 17:25:27;;;;;;;4.82;1.48;;;10.90;67.80;;;;;;5095307;28;20048;-71
2022/02/04 17:27:54;;;;;;;4.63;1.33;;;10.80;67.50;;;;;;5110713;27;20071;-71
2022/02/04 17:30:21;;;;;;;7.57;1.50;;;10.90;67.80;;;;;;5094703;28;20488;-71
2022/02/04 17:32:49;;;;;;;4.35;1.80;;;10.90;67.50;;;;;;5077164;28;20024;-71
2022/02/04 17:35:16;;;;;;;6.10;1.50;;;10.90;67.80;;;;;;5093892;28;20022;-71
2022/02/04 17:37:42;;;;;;;3.83;1.52;;;10.90;67.30;;;;;;5090645;28;20064;-71
2022/02/04 17:40:11;;;;;;;5.63;1.67;;;10.80;67.40;;;;;;5096851;28;20024;-71
2022/02/04 17:42:40;;;;;;;3.75;1.50;;;10.80;67.40;;;;;;5094880;28;20540;-71
2022/02/04 17:45:09;;;;;;;5.97;2.10;;;10.70;67.60;;;;;;5095202;28;20030;-71
2022/02/04 17:47:35;;;;;;;4.68;1.73;;;10.80;68.00;;;;;;5094604;28;20034;-71
2022/02/04 17:50:09;;;;;;;6.05;2.08;;;10.80;67.80;;;;;;5091964;28;20114;-71
2022/02/04 17:52:41;;;;;;;7.57;2.00;;;10.80;67.70;;;;;;5092186;28;20433;-71
2022/02/04 17:55:17;;;;;;;5.97;2.00;;;10.70;68.00;;;;;;5095680;28;20043;-71
2022/02/04 17:57:51;;;;;;;4.40;1.65;;;10.80;68.20;;;;;;5094050;28;20036;-72
2022/02/04 18:03:00;;;;;;;8.80;2.20;;;10.80;68.00;;;;;;5093363;28;20028;-72
2022/02/04 18:08:21;;;;;;;5.95;2.25;;;10.70;68.00;;;;;;5046001;28;20532;-72
2022/02/04 18:10:47;;;;;;;5.93;2.25;;;10.70;68.00;;;;;;5048619;28;20037;-72
2022/02/04 18:13:13;;;;;;;5.47;2.08;;;10.70;68.10;;;;;;5048754;28;20611;-72
2022/02/04 18:15:42;;;;;;;6.45;2.33;;;10.70;67.90;;;;;;5048497;28;20040;-71
2022/02/04 18:18:12;;;;;;;6.85;2.53;;;10.70;67.80;;;;;;5064574;28;20083;-71
2022/02/04 18:20:38;;;;;;;7.60;2.20;;;10.60;68.00;;;;;;5047585;28;20059;-71
2022/02/04 18:23:04;;;;;;;5.78;2.30;;;10.60;68.10;;;;;;5048539;28;20635;-71
2022/02/04 18:25:32;;;;;;;6.47;2.45;;;10.70;68.30;;;;;;5048826;28;20072;-70
2022/02/04 18:27:59;;;;;;;7.22;2.67;;;10.60;68.00;;;;;;5048649;28;20509;-70
2022/02/04 18:30:28;;;;;;;9.20;2.45;;;10.60;67.90;;;;;;5046861;28;20071;-71
2022/02/04 18:32:54;;;;;;;6.20;2.65;;;10.50;67.70;;;;;;5048278;28;20052;-71
2022/02/04 18:35:20;;;;;;;6.93;2.95;;;10.50;67.90;;;;;;5048542;28;20033;-71
2022/02/04 18:38:01;;;;;;;5.50;2.72;;;10.50;68.00;;;;;;5048329;28;20124;-71
2022/02/04 18:40:50;;;;;;;7.30;2.90;;;10.40;68.00;;;;;;5045257;28;20029;-71
2022/02/04 18:45:52;;;;;;;7.53;3.10;;;10.40;68.10;;;;;;5092358;28;20050;-71
2022/02/04 18:48:22;;;;;;;7.05;2.70;;;10.30;68.00;;;;;;5094024;28;20546;-71
2022/02/04 18:51:04;;;;;;;8.00;3.17;;;10.30;68.20;;;;;;5093123;28;20465;-71
2022/02/04 18:53:36;;;;;;;7.82;3.40;;;10.30;68.10;;;;;;5093508;28;20038;-71
2022/02/04 18:56:28;;;;;;;9.60;4.57;;;10.20;68.10;;;;;;5091022;28;20016;-76
2022/02/04 18:58:54;;;;;;;6.75;3.20;;;10.20;68.40;;;;;;5074830;28;20063;-75
2022/02/04 19:01:24;;;;;;;6.10;3.35;;;10.20;68.20;;;;;;5077627;28;20024;-76
2022/02/04 19:03:55;;;;;;;10.02;3.10;;;10.30;68.30;;;;;;5093320;28;20019;-75
2022/02/04 19:06:27;;;;;;;11.65;3.30;;;10.20;68.20;;;;;;5099319;28;20114;-76
2022/02/04 19:08:58;;;;;;;8.70;3.40;;;10.20;68.00;;;;;;5102239;28;20027;-76
2022/02/04 19:11:38;;;;;;;6.10;2.80;;;10.10;68.30;;;;;;5079234;28;20027;-77
2022/02/04 19:14:12;;;;;;;6.57;2.90;;;10.10;68.40;;;;;;5095626;28;20082;-70
2022/02/04 19:24:05;;;;;;;8.93;3.28;;;10.10;68.00;;;;;;5098432;28;20028;-68
2022/02/04 19:26:31;;;;;;;7.10;3.35;;;10.10;68.10;;;;;;5098375;28;20123;-67
2022/02/04 19:28:56;;;;;;;7.75;3.20;;;10.10;67.90;;;;;;5094702;28;20495;-67
2022/02/04 19:31:22;;;;;;;11.60;3.33;;;10.10;68.90;;;;;;5099141;28;20020;-67
2022/02/04 19:33:48;;;;;;;8.27;3.38;;;10.00;67.90;;;;;;5097018;28;20100;-67
2022/02/04 19:36:15;;;;;;;10.43;3.90;;;10.00;68.10;;;;;;5097973;28;20052;-67
2022/02/04 19:38:40;;;;;;;8.05;3.65;;;10.00;68.30;;;;;;5097825;28;20038;-67
2022/02/04 19:41:12;;;;;;;7.93;3.33;;;10.00;68.20;;;;;;5095910;28;20538;-67
2022/02/04 19:43:38;;;;;;;7.43;3.45;;;10.00;68.30;;;;;;5094774;28;20031;-68
2022/02/04 19:46:11;;;;;;;10.95;3.65;;;9.90;68.00;;;;;;5099846;28;20032;-67
2022/02/04 19:48:43;;;;;;;8.38;3.65;;;9.90;68.40;;;;;;5097592;28;20484;-67
2022/02/04 19:51:27;;;;;;;6.95;3.10;;;10.00;68.40;;;;;;5095435;28;20454;-67
2022/02/04 20:26:03;;;;;;;7.40;3.25;;;9.90;68.80;;;;;;5011677;28;20037;-68